sensor_id;sensor_type;location;lat;lon;timestamp;pressure;altitude;pressure_sealevel;temperature;humidity
19576;BME280;41589;51.196;7.074;2023-05-07T00:01:39;99010.50;;;17.08;88.12
19576;BME280;41589;51.196;7.074;2023-05-07T00:06:40;99014.34;;;17.04;87.82
19576;BME280;41589;51.196;7.074;2023-05-07T00:11:41;99004.31;;;17.09;87.77
19576;BME280;41589;51.196;7.074;2023-05-07T00:16:46;98993.69;;;17.10;87.71
19576;BME280;41589;51.196;7.074;2023-05-07T00:21:47;98988.03;;;17.10;87.24
19576;BME280;41589;51.196;7.074;2023-05-07T00:26:48;98993.72;;;17.15;86.81
19576;BME280;41589;51.196;7.074;2023-05-07T00:31:51;98986.72;;;17.16;86.53
19576;BME280;41589;51.196;7.074;2023-05-07T00:36:57;98997.84;;;17.14;86.45
19576;BME280;41589;51.196;7.074;2023-05-07T00:42:01;98994.22;;;17.14;86.02
19576;BME280;41589;51.196;7.074;2023-05-07T00:47:04;98991.38;;;17.14;85.63
19576;BME280;41589;51.196;7.074;2023-05-07T00:52:14;98994.47;;;17.10;86.58
19576;BME280;41589;51.196;7.074;2023-05-07T00:57:19;98978.69;;;17.03;85.50
19576;BME280;41589;51.196;7.074;2023-05-07T01:02:21;98987.19;;;17.03;84.68
19576;BME280;41589;51.196;7.074;2023-05-07T01:07:25;98996.75;;;17.00;84.64
19576;BME280;41589;51.196;7.074;2023-05-07T01:12:26;98987.97;;;17.04;85.04
19576;BME280;41589;51.196;7.074;2023-05-07T01:17:40;98985.66;;;17.02;85.54
19576;BME280;41589;51.196;7.074;2023-05-07T01:22:54;98983.59;;;17.03;84.37
19576;BME280;41589;51.196;7.074;2023-05-07T01:28:00;98977.13;;;17.02;84.25
19576;BME280;41589;51.196;7.074;2023-05-07T01:33:09;98983.06;;;16.99;84.14
19576;BME280;41589;51.196;7.074;2023-05-07T01:38:12;98975.31;;;16.99;83.23
19576;BME280;41589;51.196;7.074;2023-05-07T01:43:13;98982.53;;;17.00;83.69
19576;BME280;41589;51.196;7.074;2023-05-07T01:48:15;98976.31;;;16.91;82.97
19576;BME280;41589;51.196;7.074;2023-05-07T01:53:16;98976.81;;;16.95;83.43
19576;BME280;41589;51.196;7.074;2023-05-07T01:58:23;98965.97;;;16.88;83.71
19576;BME280;41589;51.196;7.074;2023-05-07T02:03:27;98976.56;;;16.87;82.56
19576;BME280;41589;51.196;7.074;2023-05-07T02:08:42;98965.13;;;16.76;82.85
19576;BME280;41589;51.196;7.074;2023-05-07T02:13:58;98972.91;;;16.81;83.77
19576;BME280;41589;51.196;7.074;2023-05-07T02:18:59;98968.25;;;16.78;82.70
19576;BME280;41589;51.196;7.074;2023-05-07T02:24:08;98963.06;;;16.77;81.98
19576;BME280;41589;51.196;7.074;2023-05-07T02:29:17;98965.88;;;16.71;81.88
19576;BME280;41589;51.196;7.074;2023-05-07T02:39:47;98974.66;;;16.67;82.04
19576;BME280;41589;51.196;7.074;2023-05-07T02:45:17;98968.09;;;16.56;81.29
19576;BME280;41589;51.196;7.074;2023-05-07T02:50:55;98962.38;;;16.50;81.31
19576;BME280;41589;51.196;7.074;2023-05-07T02:56:05;98958.50;;;16.48;80.57
19576;BME280;41589;51.196;7.074;2023-05-07T03:01:12;98967.75;;;16.42;80.73
19576;BME280;41589;51.196;7.074;2023-05-07T03:06:42;98979.63;;;16.41;80.04
19576;BME280;41589;51.196;7.074;2023-05-07T03:12:06;98975.22;;;16.40;81.26
19576;BME280;41589;51.196;7.074;2023-05-07T03:17:09;98971.56;;;16.34;79.82
19576;BME280;41589;51.196;7.074;2023-05-07T03:22:26;98968.16;;;16.24;79.62
19576;BME280;41589;51.196;7.074;2023-05-07T03:27:38;98957.84;;;16.27;79.02
19576;BME280;41589;51.196;7.074;2023-05-07T03:32:43;98948.34;;;16.35;78.89
19576;BME280;41589;51.196;7.074;2023-05-07T03:43:37;98947.25;;;16.27;78.15
19576;BME280;41589;51.196;7.074;2023-05-07T03:48:42;98947.53;;;16.29;77.80
19576;BME280;41589;51.196;7.074;2023-05-07T03:53:46;98954.22;;;16.26;77.82
19576;BME280;41589;51.196;7.074;2023-05-07T03:59:05;98956.78;;;16.24;77.46
19576;BME280;41589;51.196;7.074;2023-05-07T04:10:13;98971.47;;;16.23;77.08
19576;BME280;41589;51.196;7.074;2023-05-07T04:15:50;98971.97;;;16.21;77.81
19576;BME280;41589;51.196;7.074;2023-05-07T04:20:59;98966.56;;;16.23;76.16
19576;BME280;41589;51.196;7.074;2023-05-07T04:26:05;98988.84;;;16.30;76.04
19576;BME280;41589;51.196;7.074;2023-05-07T04:31:17;98980.31;;;16.30;76.21
19576;BME280;41589;51.196;7.074;2023-05-07T04:36:36;98978.38;;;16.48;75.87
19576;BME280;41589;51.196;7.074;2023-05-07T04:41:44;98971.16;;;16.52;74.97
19576;BME280;41589;51.196;7.074;2023-05-07T04:46:51;98975.84;;;16.61;75.06
19576;BME280;41589;51.196;7.074;2023-05-07T04:52:02;98978.00;;;16.71;74.80
19576;BME280;41589;51.196;7.074;2023-05-07T04:57:07;98966.44;;;16.81;74.01
19576;BME280;41589;51.196;7.074;2023-05-07T05:02:18;98967.22;;;16.81;73.27
19576;BME280;41589;51.196;7.074;2023-05-07T05:07:28;98983.03;;;16.93;72.54
19576;BME280;41589;51.196;7.074;2023-05-07T05:12:41;98978.16;;;16.99;72.04
19576;BME280;41589;51.196;7.074;2023-05-07T05:17:48;98980.25;;;17.10;72.27
19576;BME280;41589;51.196;7.074;2023-05-07T05:22:55;98981.03;;;17.16;71.45
19576;BME280;41589;51.196;7.074;2023-05-07T05:28:07;98982.38;;;17.26;70.55
19576;BME280;41589;51.196;7.074;2023-05-07T05:33:16;98986.56;;;17.42;69.97
19576;BME280;41589;51.196;7.074;2023-05-07T05:38:17;98987.09;;;17.46;69.60
19576;BME280;41589;51.196;7.074;2023-05-07T05:43:20;98984.56;;;17.59;68.91
19576;BME280;41589;51.196;7.074;2023-05-07T05:48:24;98982.78;;;17.73;68.55
19576;BME280;41589;51.196;7.074;2023-05-07T05:53:26;98980.47;;;17.83;68.03
19576;BME280;41589;51.196;7.074;2023-05-07T05:58:27;98987.69;;;17.95;67.72
19576;BME280;41589;51.196;7.074;2023-05-07T06:03:33;98999.09;;;18.06;67.54
19576;BME280;41589;51.196;7.074;2023-05-07T06:08:38;99002.72;;;18.01;66.48
19576;BME280;41589;51.196;7.074;2023-05-07T06:13:38;98996.50;;;18.19;66.94
19576;BME280;41589;51.196;7.074;2023-05-07T06:18:39;98998.59;;;18.25;66.50
19576;BME280;41589;51.196;7.074;2023-05-07T06:23:40;98999.84;;;18.57;66.02
19576;BME280;41589;51.196;7.074;2023-05-07T06:28:41;99011.25;;;18.68;65.45
19576;BME280;41589;51.196;7.074;2023-05-07T06:33:45;99008.84;;;18.84;64.66
19576;BME280;41589;51.196;7.074;2023-05-07T06:38:47;99010.16;;;18.83;64.59
19576;BME280;41589;51.196;7.074;2023-05-07T06:43:49;99012.22;;;18.88;64.60
19576;BME280;41589;51.196;7.074;2023-05-07T06:49:04;99020.47;;;19.02;63.12
19576;BME280;41589;51.196;7.074;2023-05-07T06:54:05;99014.66;;;19.25;64.25
19576;BME280;41589;51.196;7.074;2023-05-07T06:59:07;99020.81;;;19.46;63.46
19576;BME280;41589;51.196;7.074;2023-05-07T07:04:12;99012.19;;;19.57;61.58
19576;BME280;41589;51.196;7.074;2023-05-07T07:09:15;99007.69;;;19.73;62.14
19576;BME280;41589;51.196;7.074;2023-05-07T07:14:16;99018.75;;;19.87;61.48
19576;BME280;41589;51.196;7.074;2023-05-07T07:19:21;99021.22;;;20.08;60.15
19576;BME280;41589;51.196;7.074;2023-05-07T07:24:25;99024.75;;;20.25;59.03
19576;BME280;41589;51.196;7.074;2023-05-07T07:29:30;99026.25;;;20.62;58.93
19576;BME280;41589;51.196;7.074;2023-05-07T07:34:30;99031.41;;;20.93;57.60
19576;BME280;41589;51.196;7.074;2023-05-07T07:39:32;99037.50;;;21.27;57.58
19576;BME280;41589;51.196;7.074;2023-05-07T07:44:33;99032.84;;;21.68;56.48
19576;BME280;41589;51.196;7.074;2023-05-07T07:49:39;99038.69;;;21.75;54.67
19576;BME280;41589;51.196;7.074;2023-05-07T07:54:42;99040.78;;;21.75;53.98
19576;BME280;41589;51.196;7.074;2023-05-07T07:59:43;99043.56;;;21.99;53.92
19576;BME280;41589;51.196;7.074;2023-05-07T08:04:45;99042.84;;;22.31;54.11
19576;BME280;41589;51.196;7.074;2023-05-07T08:09:46;99045.72;;;22.31;52.87
19576;BME280;41589;51.196;7.074;2023-05-07T08:14:47;99037.50;;;22.67;53.29
19576;BME280;41589;51.196;7.074;2023-05-07T08:19:48;99038.19;;;22.60;51.41
19576;BME280;41589;51.196;7.074;2023-05-07T08:24:49;99047.22;;;22.64;51.28
19576;BME280;41589;51.196;7.074;2023-05-07T08:29:50;99036.81;;;23.06;51.21
19576;BME280;41589;51.196;7.074;2023-05-07T08:34:52;99043.75;;;23.37;49.90
19576;BME280;41589;51.196;7.074;2023-05-07T08:39:53;99042.63;;;23.53;49.08
19576;BME280;41589;51.196;7.074;2023-05-07T08:44:57;99039.34;;;23.97;48.70
19576;BME280;41589;51.196;7.074;2023-05-07T08:50:00;99041.44;;;23.96;47.39
19576;BME280;41589;51.196;7.074;2023-05-07T08:55:02;99045.72;;;24.37;46.57
19576;BME280;41589;51.196;7.074;2023-05-07T09:00:03;99034.34;;;24.52;45.09
19576;BME280;41589;51.196;7.074;2023-05-07T09:05:05;99038.81;;;24.19;44.45
19576;BME280;41589;51.196;7.074;2023-05-07T09:10:07;99034.31;;;24.73;45.38
19576;BME280;41589;51.196;7.074;2023-05-07T09:15:10;99033.28;;;25.12;44.02
19576;BME280;41589;51.196;7.074;2023-05-07T09:20:11;99034.53;;;25.32;43.02
19576;BME280;41589;51.196;7.074;2023-05-07T09:25:12;99033.53;;;25.22;41.93
19576;BME280;41589;51.196;7.074;2023-05-07T09:30:13;99031.28;;;25.36;42.83
19576;BME280;41589;51.196;7.074;2023-05-07T09:35:15;99037.91;;;25.51;41.13
19576;BME280;41589;51.196;7.074;2023-05-07T09:40:28;99042.25;;;25.37;41.23
19576;BME280;41589;51.196;7.074;2023-05-07T09:45:31;99051.25;;;25.70;40.79
19576;BME280;41589;51.196;7.074;2023-05-07T09:50:36;99041.38;;;25.57;40.14
19576;BME280;41589;51.196;7.074;2023-05-07T09:55:39;99039.41;;;25.45;41.50
19576;BME280;41589;51.196;7.074;2023-05-07T10:00:40;99036.28;;;26.45;41.04
19576;BME280;41589;51.196;7.074;2023-05-07T10:05:46;99037.81;;;27.00;39.44
19576;BME280;41589;51.196;7.074;2023-05-07T10:10:49;99040.91;;;26.64;36.84
19576;BME280;41589;51.196;7.074;2023-05-07T10:15:55;99033.53;;;26.17;37.27
19576;BME280;41589;51.196;7.074;2023-05-07T10:21:08;99033.53;;;26.17;36.99
19576;BME280;41589;51.196;7.074;2023-05-07T10:26:12;99030.13;;;26.72;36.83
19576;BME280;41589;51.196;7.074;2023-05-07T10:36:21;99033.59;;;26.48;37.03
19576;BME280;41589;51.196;7.074;2023-05-07T10:41:23;99035.31;;;26.51;37.21
19576;BME280;41589;51.196;7.074;2023-05-07T10:46:25;99032.59;;;27.14;37.30
19576;BME280;41589;51.196;7.074;2023-05-07T10:51:41;99034.72;;;27.21;37.12
19576;BME280;41589;51.196;7.074;2023-05-07T10:56:52;99033.00;;;26.95;35.80
19576;BME280;41589;51.196;7.074;2023-05-07T11:02:03;99020.69;;;26.79;36.39
19576;BME280;41589;51.196;7.074;2023-05-07T11:07:29;99027.81;;;26.55;36.95
19576;BME280;41589;51.196;7.074;2023-05-07T11:17:53;99033.69;;;26.04;37.03
19576;BME280;41589;51.196;7.074;2023-05-07T11:22:54;99026.53;;;25.89;36.62
19576;BME280;41589;51.196;7.074;2023-05-07T11:28:07;99026.47;;;25.67;36.68
19576;BME280;41589;51.196;7.074;2023-05-07T11:33:12;99026.28;;;25.36;37.22
19576;BME280;41589;51.196;7.074;2023-05-07T11:38:18;99024.94;;;25.01;37.91
19576;BME280;41589;51.196;7.074;2023-05-07T11:43:18;99031.03;;;24.69;38.82
19576;BME280;41589;51.196;7.074;2023-05-07T11:48:21;99026.97;;;24.43;39.61
19576;BME280;41589;51.196;7.074;2023-05-07T11:53:25;99026.56;;;24.39;39.74
19576;BME280;41589;51.196;7.074;2023-05-07T11:58:25;99022.34;;;24.40;40.01
19576;BME280;41589;51.196;7.074;2023-05-07T12:03:26;99031.19;;;24.42;40.29
19576;BME280;41589;51.196;7.074;2023-05-07T12:08:26;99038.25;;;24.21;38.95
19576;BME280;41589;51.196;7.074;2023-05-07T12:13:26;99035.03;;;23.90;41.89
19576;BME280;41589;51.196;7.074;2023-05-07T12:18:27;99034.66;;;23.59;42.61
19576;BME280;41589;51.196;7.074;2023-05-07T12:23:28;99037.94;;;23.63;43.91
19576;BME280;41589;51.196;7.074;2023-05-07T12:28:29;99029.50;;;23.45;43.80
19576;BME280;41589;51.196;7.074;2023-05-07T12:33:30;99037.00;;;23.21;44.09
19576;BME280;41589;51.196;7.074;2023-05-07T12:38:39;99035.91;;;23.11;44.85
19576;BME280;41589;51.196;7.074;2023-05-07T12:43:43;99052.41;;;22.79;45.54
19576;BME280;41589;51.196;7.074;2023-05-07T12:48:45;99063.31;;;22.54;45.86
19576;BME280;41589;51.196;7.074;2023-05-07T12:53:46;99051.34;;;22.36;46.21
19576;BME280;41589;51.196;7.074;2023-05-07T12:58:48;99055.63;;;22.11;47.92
19576;BME280;41589;51.196;7.074;2023-05-07T13:03:48;99058.16;;;22.14;47.97
19576;BME280;41589;51.196;7.074;2023-05-07T13:08:50;99064.78;;;21.90;48.95
19576;BME280;41589;51.196;7.074;2023-05-07T13:13:50;99065.94;;;21.82;50.08
19576;BME280;41589;51.196;7.074;2023-05-07T13:18:51;99057.19;;;21.55;51.61
19576;BME280;41589;51.196;7.074;2023-05-07T13:23:51;99062.53;;;21.46;51.90
19576;BME280;41589;51.196;7.074;2023-05-07T13:28:53;99078.19;;;21.64;51.64
19576;BME280;41589;51.196;7.074;2023-05-07T13:33:53;99086.88;;;21.52;50.90
19576;BME280;41589;51.196;7.074;2023-05-07T13:38:56;99080.69;;;21.48;51.55
19576;BME280;41589;51.196;7.074;2023-05-07T13:43:56;99066.56;;;21.56;50.53
19576;BME280;41589;51.196;7.074;2023-05-07T13:48:56;99066.38;;;21.48;50.01
19576;BME280;41589;51.196;7.074;2023-05-07T13:53:57;99070.19;;;21.56;51.76
19576;BME280;41589;51.196;7.074;2023-05-07T13:58:58;99070.34;;;21.21;52.75
19576;BME280;41589;51.196;7.074;2023-05-07T14:03:59;99059.25;;;21.12;52.49
19576;BME280;41589;51.196;7.074;2023-05-07T14:08:59;99065.47;;;21.16;52.20
19576;BME280;41589;51.196;7.074;2023-05-07T14:14:00;99071.59;;;21.01;52.24
19576;BME280;41589;51.196;7.074;2023-05-07T14:19:00;99074.19;;;20.74;53.60
19576;BME280;41589;51.196;7.074;2023-05-07T14:24:00;99086.41;;;20.45;55.19
19576;BME280;41589;51.196;7.074;2023-05-07T14:29:01;99082.50;;;20.48;55.91
19576;BME280;41589;51.196;7.074;2023-05-07T14:34:02;99099.41;;;20.46;56.46
19576;BME280;41589;51.196;7.074;2023-05-07T14:39:02;99109.72;;;20.19;57.58
19576;BME280;41589;51.196;7.074;2023-05-07T14:44:03;99111.63;;;20.11;58.25
19576;BME280;41589;51.196;7.074;2023-05-07T14:49:04;99112.09;;;20.15;59.32
19576;BME280;41589;51.196;7.074;2023-05-07T14:54:06;99118.94;;;19.95;61.16
19576;BME280;41589;51.196;7.074;2023-05-07T14:59:09;99126.00;;;19.88;62.93
19576;BME280;41589;51.196;7.074;2023-05-07T15:04:10;99124.44;;;19.87;62.87
19576;BME280;41589;51.196;7.074;2023-05-07T15:09:14;99130.66;;;19.86;64.00
19576;BME280;41589;51.196;7.074;2023-05-07T15:14:17;99134.84;;;19.85;65.04
19576;BME280;41589;51.196;7.074;2023-05-07T15:19:18;99129.13;;;19.85;65.38
19576;BME280;41589;51.196;7.074;2023-05-07T15:24:18;99148.44;;;19.62;67.15
19576;BME280;41589;51.196;7.074;2023-05-07T15:29:18;99161.25;;;19.39;69.23
19576;BME280;41589;51.196;7.074;2023-05-07T15:34:20;99157.34;;;19.25;70.89
19576;BME280;41589;51.196;7.074;2023-05-07T15:39:20;99135.59;;;18.94;73.47
19576;BME280;41589;51.196;7.074;2023-05-07T15:44:21;99135.63;;;18.77;74.62
19576;BME280;41589;51.196;7.074;2023-05-07T15:49:24;99126.03;;;18.63;77.19
19576;BME280;41589;51.196;7.074;2023-05-07T15:54:56;99118.19;;;18.02;85.72
19576;BME280;41589;51.196;7.074;2023-05-07T15:59:56;99114.97;;;17.67;92.20
19576;BME280;41589;51.196;7.074;2023-05-07T16:04:57;99115.63;;;17.39;97.47
19576;BME280;41589;51.196;7.074;2023-05-07T16:09:57;99114.75;;;17.22;100.00
19576;BME280;41589;51.196;7.074;2023-05-07T16:14:57;99111.59;;;17.09;100.00
19576;BME280;41589;51.196;7.074;2023-05-07T16:19:58;99119.41;;;16.82;100.00
19576;BME280;41589;51.196;7.074;2023-05-07T16:24:58;99118.78;;;17.04;100.00
19576;BME280;41589;51.196;7.074;2023-05-07T16:29:59;99118.06;;;17.15;100.00
19576;BME280;41589;51.196;7.074;2023-05-07T16:35:00;99127.00;;;17.39;100.00
19576;BME280;41589;51.196;7.074;2023-05-07T16:40:00;99119.25;;;17.40;100.00
19576;BME280;41589;51.196;7.074;2023-05-07T16:45:02;99122.78;;;17.23;100.00
19576;BME280;41589;51.196;7.074;2023-05-07T16:50:03;99129.75;;;17.22;100.00
19576;BME280;41589;51.196;7.074;2023-05-07T16:55:05;99128.19;;;17.21;100.00
19576;BME280;41589;51.196;7.074;2023-05-07T17:00:06;99141.31;;;17.56;100.00
19576;BME280;41589;51.196;7.074;2023-05-07T17:05:06;99138.78;;;17.64;100.00
19576;BME280;41589;51.196;7.074;2023-05-07T17:10:07;99145.16;;;17.53;100.00
19576;BME280;41589;51.196;7.074;2023-05-07T17:15:08;99137.31;;;17.37;100.00
19576;BME280;41589;51.196;7.074;2023-05-07T17:20:10;99143.63;;;17.52;100.00
19576;BME280;41589;51.196;7.074;2023-05-07T17:25:13;99144.47;;;17.64;100.00
19576;BME280;41589;51.196;7.074;2023-05-07T17:30:14;99155.09;;;17.69;100.00
19576;BME280;41589;51.196;7.074;2023-05-07T17:35:21;99160.56;;;17.78;100.00
19576;BME280;41589;51.196;7.074;2023-05-07T17:40:50;99167.84;;;17.84;100.00
19576;BME280;41589;51.196;7.074;2023-05-07T17:45:59;99172.53;;;17.93;100.00
19576;BME280;41589;51.196;7.074;2023-05-07T17:51:09;99177.38;;;17.76;100.00
19576;BME280;41589;51.196;7.074;2023-05-07T17:56:10;99180.75;;;17.80;100.00
19576;BME280;41589;51.196;7.074;2023-05-07T18:01:14;99181.25;;;17.73;100.00
19576;BME280;41589;51.196;7.074;2023-05-07T18:06:15;99180.47;;;17.72;100.00
19576;BME280;41589;51.196;7.074;2023-05-07T18:11:18;99193.44;;;17.79;100.00
19576;BME280;41589;51.196;7.074;2023-05-07T18:16:24;99189.56;;;17.82;100.00
19576;BME280;41589;51.196;7.074;2023-05-07T18:21:28;99204.81;;;17.73;100.00
19576;BME280;41589;51.196;7.074;2023-05-07T18:26:35;99201.41;;;17.69;100.00
19576;BME280;41589;51.196;7.074;2023-05-07T18:31:45;99202.41;;;17.60;100.00
19576;BME280;41589;51.196;7.074;2023-05-07T18:36:48;99223.13;;;17.61;100.00
19576;BME280;41589;51.196;7.074;2023-05-07T18:41:48;99226.03;;;17.72;100.00
19576;BME280;41589;51.196;7.074;2023-05-07T18:46:49;99227.31;;;17.71;100.00
19576;BME280;41589;51.196;7.074;2023-05-07T18:51:50;99243.16;;;17.83;100.00
19576;BME280;41589;51.196;7.074;2023-05-07T18:56:52;99248.72;;;17.61;100.00
19576;BME280;41589;51.196;7.074;2023-05-07T19:01:52;99245.00;;;17.49;100.00
19576;BME280;41589;51.196;7.074;2023-05-07T19:06:53;99248.56;;;17.39;100.00
19576;BME280;41589;51.196;7.074;2023-05-07T19:11:54;99253.56;;;17.49;100.00
19576;BME280;41589;51.196;7.074;2023-05-07T19:16:55;99254.97;;;17.65;100.00
19576;BME280;41589;51.196;7.074;2023-05-07T19:21:55;99257.28;;;17.67;100.00
19576;BME280;41589;51.196;7.074;2023-05-07T19:26:56;99277.47;;;17.69;100.00
19576;BME280;41589;51.196;7.074;2023-05-07T19:31:56;99282.13;;;17.66;100.00
19576;BME280;41589;51.196;7.074;2023-05-07T19:36:57;99288.34;;;17.65;100.00
19576;BME280;41589;51.196;7.074;2023-05-07T19:41:57;99286.06;;;17.74;100.00
19576;BME280;41589;51.196;7.074;2023-05-07T19:46:58;99298.75;;;17.79;100.00
19576;BME280;41589;51.196;7.074;2023-05-07T19:51:58;99305.22;;;17.79;100.00
19576;BME280;41589;51.196;7.074;2023-05-07T19:56:58;99314.84;;;17.82;100.00
19576;BME280;41589;51.196;7.074;2023-05-07T20:01:59;99315.34;;;17.80;100.00
19576;BME280;41589;51.196;7.074;2023-05-07T20:06:59;99309.38;;;17.78;100.00
19576;BME280;41589;51.196;7.074;2023-05-07T20:11:59;99305.47;;;17.70;100.00
19576;BME280;41589;51.196;7.074;2023-05-07T20:17:00;99313.19;;;17.64;100.00
19576;BME280;41589;51.196;7.074;2023-05-07T20:22:00;99325.78;;;17.57;100.00
19576;BME280;41589;51.196;7.074;2023-05-07T20:27:01;99330.19;;;17.58;100.00
19576;BME280;41589;51.196;7.074;2023-05-07T20:32:03;99328.94;;;17.59;100.00
19576;BME280;41589;51.196;7.074;2023-05-07T20:37:03;99333.34;;;17.60;100.00
19576;BME280;41589;51.196;7.074;2023-05-07T20:42:05;99349.56;;;17.54;100.00
19576;BME280;41589;51.196;7.074;2023-05-07T20:47:06;99340.94;;;17.43;100.00
19576;BME280;41589;51.196;7.074;2023-05-07T20:52:06;99340.78;;;17.26;100.00
19576;BME280;41589;51.196;7.074;2023-05-07T20:57:06;99342.31;;;17.22;100.00
19576;BME280;41589;51.196;7.074;2023-05-07T21:02:07;99348.59;;;17.31;100.00
19576;BME280;41589;51.196;7.074;2023-05-07T21:07:08;99353.00;;;17.32;100.00
19576;BME280;41589;51.196;7.074;2023-05-07T21:12:08;99357.22;;;17.43;100.00
19576;BME280;41589;51.196;7.074;2023-05-07T21:17:09;99360.31;;;17.39;100.00
19576;BME280;41589;51.196;7.074;2023-05-07T21:22:09;99345.50;;;17.35;100.00
19576;BME280;41589;51.196;7.074;2023-05-07T21:27:13;99353.28;;;17.35;100.00
19576;BME280;41589;51.196;7.074;2023-05-07T21:32:14;99344.31;;;17.16;100.00
19576;BME280;41589;51.196;7.074;2023-05-07T21:37:15;99351.88;;;17.24;100.00
19576;BME280;41589;51.196;7.074;2023-05-07T21:42:18;99351.34;;;17.20;100.00
19576;BME280;41589;51.196;7.074;2023-05-07T21:47:23;99348.44;;;17.15;100.00
19576;BME280;41589;51.196;7.074;2023-05-07T21:52:24;99341.97;;;17.14;100.00
19576;BME280;41589;51.196;7.074;2023-05-07T21:57:25;99354.13;;;17.15;100.00
19576;BME280;41589;51.196;7.074;2023-05-07T22:02:26;99350.16;;;17.07;100.00
19576;BME280;41589;51.196;7.074;2023-05-07T22:07:27;99354.00;;;17.03;100.00
19576;BME280;41589;51.196;7.074;2023-05-07T22:12:27;99356.84;;;17.03;100.00
19576;BME280;41589;51.196;7.074;2023-05-07T22:17:28;99346.91;;;16.88;100.00
19576;BME280;41589;51.196;7.074;2023-05-07T22:22:29;99351.69;;;16.76;100.00
19576;BME280;41589;51.196;7.074;2023-05-07T22:27:33;99355.78;;;16.75;100.00
19576;BME280;41589;51.196;7.074;2023-05-07T22:32:37;99354.81;;;16.78;100.00
19576;BME280;41589;51.196;7.074;2023-05-07T22:37:38;99352.72;;;16.79;100.00
19576;BME280;41589;51.196;7.074;2023-05-07T22:42:39;99365.91;;;16.76;100.00
19576;BME280;41589;51.196;7.074;2023-05-07T22:47:40;99355.97;;;16.66;100.00
19576;BME280;41589;51.196;7.074;2023-05-07T22:52:44;99360.38;;;16.67;100.00
19576;BME280;41589;51.196;7.074;2023-05-07T22:57:48;99354.44;;;16.70;100.00
19576;BME280;41589;51.196;7.074;2023-05-07T23:02:51;99352.88;;;16.69;100.00
19576;BME280;41589;51.196;7.074;2023-05-07T23:07:52;99354.19;;;16.68;100.00
19576;BME280;41589;51.196;7.074;2023-05-07T23:12:56;99358.03;;;16.65;100.00
19576;BME280;41589;51.196;7.074;2023-05-07T23:17:57;99354.44;;;16.70;100.00
19576;BME280;41589;51.196;7.074;2023-05-07T23:22:59;99354.94;;;16.69;100.00
19576;BME280;41589;51.196;7.074;2023-05-07T23:28:00;99352.34;;;16.65;100.00
19576;BME280;41589;51.196;7.074;2023-05-07T23:33:01;99348.63;;;16.59;100.00
19576;BME280;41589;51.196;7.074;2023-05-07T23:38:02;99349.63;;;16.56;100.00
19576;BME280;41589;51.196;7.074;2023-05-07T23:43:03;99345.91;;;16.50;100.00
19576;BME280;41589;51.196;7.074;2023-05-07T23:48:04;99343.03;;;16.44;100.00
19576;BME280;41589;51.196;7.074;2023-05-07T23:53:08;99338.19;;;16.30;100.00
19576;BME280;41589;51.196;7.074;2023-05-07T23:58:11;99336.84;;;16.26;100.00
